Time;durP1;ratioP1;P1;durP2;ratioP2;P2;SDS_P1;SDS_P2;PMS_P1;PMS_P2;Temp;Humidity;BMP_temperature;BMP_pressure;BME280_temperature;BME280_humidity;BME280_pressure;Samples;Min_cycle;Max_cycle;Signal;HPM_P1;HPM_P2
2021/09/13 00:02:22;;;;;;;2.80;2.70;;;17.50;99.90;;;17.78;73.87;101857.78;5113374;28;20487;-79
2021/09/13 00:04:51;;;;;;;2.72;2.63;;;17.30;99.90;;;17.63;74.03;101839.34;5113608;28;20043;-79
2021/09/13 00:07:21;;;;;;;2.47;2.38;;;17.30;99.90;;;17.64;74.05;101859.81;5113774;28;20430;-79
2021/09/13 00:09:49;;;;;;;2.38;2.28;;;17.20;99.90;;;17.46;74.42;101863.66;5113591;28;20071;-79
2021/09/13 00:12:19;;;;;;;2.60;2.50;;;17.00;99.90;;;17.64;74.85;101857.16;5113643;28;20120;-80
2021/09/13 00:14:48;;;;;;;2.40;2.30;;;17.10;99.90;;;17.59;74.76;101851.00;5113481;28;20458;-79
2021/09/13 00:17:17;;;;;;;2.95;2.75;;;17.10;99.90;;;17.64;74.71;101851.78;5113423;28;20046;-80
2021/09/13 00:19:45;;;;;;;3.88;3.47;;;17.20;99.90;;;17.53;74.67;101835.94;5113476;28;20071;-79
2021/09/13 00:22:13;;;;;;;4.82;4.40;;;17.20;99.90;;;17.66;74.56;101858.00;5113214;28;20047;-78
2021/09/13 00:24:43;;;;;;;4.22;3.92;;;17.20;99.90;;;17.69;74.55;101857.97;5113424;28;20071;-79
2021/09/13 00:27:12;;;;;;;4.30;4.00;;;17.20;99.90;;;17.69;74.49;101855.28;5113439;28;20447;-79
2021/09/13 00:29:47;;;;;;;8.68;7.93;;;17.20;99.90;;;17.58;74.99;101854.56;5113130;28;20056;-78
2021/09/13 00:32:19;;;;;;;7.68;7.05;;;17.20;99.90;;;17.62;74.86;101862.53;5113363;28;20079;-79
2021/09/13 00:34:47;;;;;;;7.60;6.90;;;17.20;99.90;;;17.66;74.94;101863.34;5095548;28;20171;-79
2021/09/13 00:37:16;;;;;;;4.95;4.40;;;17.20;99.90;;;17.67;74.56;101857.13;5115145;28;20046;-78
2021/09/13 00:39:44;;;;;;;4.20;3.90;;;17.20;99.90;;;17.69;74.45;101853.47;5116919;28;20503;-79
2021/09/13 00:42:17;;;;;;;5.32;4.85;;;17.20;99.90;;;17.66;74.64;101848.19;5116936;28;20050;-79
2021/09/13 00:44:47;;;;;;;4.78;4.40;;;17.20;99.90;;;17.65;74.83;101850.91;5116596;28;20051;-79
2021/09/13 00:47:15;;;;;;;3.33;3.13;;;17.20;99.90;;;17.62;74.93;101848.25;5098606;28;20058;-80
2021/09/13 00:49:44;;;;;;;3.80;3.50;;;17.10;99.90;;;17.48;75.36;101848.50;5116983;28;20051;-80
2021/09/13 00:52:13;;;;;;;3.97;3.60;;;17.00;99.90;;;17.52;75.32;101847.53;5116875;28;20135;-80
2021/09/13 00:54:42;;;;;;;4.22;3.92;;;17.00;99.90;;;17.48;75.27;101855.63;5116933;28;20074;-79
2021/09/13 00:57:10;;;;;;;3.63;3.42;;;16.90;99.90;;;17.47;74.84;101846.72;5098426;28;20135;-79
2021/09/13 00:59:38;;;;;;;4.45;3.00;;;17.00;99.90;;;17.46;74.58;101844.94;5116558;28;20047;-79
2021/09/13 01:02:08;;;;;;;6.20;5.70;;;17.00;99.90;;;17.51;74.82;101844.91;5116816;28;20100;-78
2021/09/13 01:04:38;;;;;;;10.40;8.25;;;17.00;99.90;;;17.57;74.95;101843.00;5116515;28;20042;-79
2021/09/13 01:07:07;;;;;;;8.55;7.40;;;17.10;99.90;;;17.61;75.00;101833.13;5098420;28;20126;-80
2021/09/13 01:09:36;;;;;;;8.98;8.18;;;17.20;99.90;;;17.69;74.83;101839.25;5116507;28;20097;-80
2021/09/13 01:12:06;;;;;;;7.25;6.55;;;17.20;99.90;;;17.74;74.90;101845.38;5098139;28;20477;-80
2021/09/13 01:14:36;;;;;;;8.23;7.43;;;17.30;99.90;;;17.80;74.58;101845.28;5116724;28;20051;-81
2021/09/13 01:17:08;;;;;;;10.65;9.40;;;17.40;99.90;;;17.67;74.68;101815.16;5098239;28;20078;-81
2021/09/13 01:19:38;;;;;;;11.13;10.02;;;17.40;99.90;;;17.68;74.91;101806.22;5098143;28;20135;-79
2021/09/13 01:22:11;;;;;;;12.27;8.48;;;17.40;99.90;;;17.89;74.49;101842.41;5098038;28;20044;-79
2021/09/13 01:24:51;;;;;;;5.97;5.47;;;17.40;99.90;;;17.65;74.29;101813.44;5098183;28;20524;-79
2021/09/13 01:27:20;;;;;;;9.30;5.10;;;17.40;99.90;;;17.55;74.45;101814.50;5098087;28;20047;-79
2021/09/13 01:29:49;;;;;;;5.35;4.53;;;17.30;99.90;;;17.58;74.53;101835.84;5097944;28;20485;-78
2021/09/13 01:32:17;;;;;;;4.72;4.43;;;17.10;99.90;;;17.53;74.84;101829.72;5116468;28;20515;-79
2021/09/13 01:34:56;;;;;;;5.47;4.97;;;17.10;99.90;;;17.32;74.49;101809.53;5098230;28;20396;-80
2021/09/13 01:37:26;;;;;;;5.65;4.40;;;17.00;99.90;;;17.46;74.61;101838.72;5097852;28;20059;-79
2021/09/13 01:40:02;;;;;;;8.60;4.63;;;17.00;99.90;;;17.48;74.63;101844.94;5097731;28;20450;-79
2021/09/13 01:42:30;;;;;;;5.80;5.30;;;17.00;99.90;;;17.41;74.83;101822.75;5097703;28;20493;-78
2021/09/13 01:44:59;;;;;;;4.93;3.42;;;17.00;99.90;;;17.21;75.24;101838.22;5097377;28;20109;-78
2021/09/13 01:47:27;;;;;;;3.22;3.03;;;16.80;99.90;;;17.02;76.10;101831.41;5097394;28;20096;-79
2021/09/13 01:49:57;;;;;;;3.75;3.50;;;16.60;99.90;;;16.99;76.47;101829.66;5097465;28;20051;-79
2021/09/13 01:52:25;;;;;;;3.50;3.17;;;16.60;99.90;;;16.97;75.67;101819.91;5115766;28;20385;-79
2021/09/13 01:54:54;;;;;;;3.33;3.03;;;16.50;99.90;;;16.86;75.49;101825.41;5097505;28;20055;-78
2021/09/13 01:57:23;;;;;;;3.17;2.80;;;16.40;99.90;;;16.68;75.92;101830.16;5115785;28;20052;-80
2021/09/13 01:59:54;;;;;;;8.20;3.90;;;16.20;99.90;;;16.31;77.08;101824.38;5097376;28;20065;-80
2021/09/13 02:02:22;;;;;;;4.93;3.17;;;15.90;99.90;;;16.14;78.36;101815.69;5097320;28;20063;-80
2021/09/13 02:04:51;;;;;;;3.80;3.50;;;15.60;99.90;;;16.06;79.57;101817.56;5097494;28;20507;-80
2021/09/13 02:07:20;;;;;;;4.78;4.35;;;15.50;99.90;;;16.26;80.09;101818.19;5097221;28;20107;-81
2021/09/13 02:09:54;;;;;;;4.55;4.25;;;15.70;99.90;;;16.41;80.14;101819.81;5096904;28;20083;-80
2021/09/13 02:12:24;;;;;;;10.75;6.60;;;15.90;99.90;;;16.57;79.73;101816.91;5097220;28;20446;-80
2021/09/13 02:14:53;;;;;;;6.22;5.63;;;16.00;99.90;;;16.67;79.69;101818.56;5115513;28;20036;-80
2021/09/13 02:17:21;;;;;;;7.05;5.20;;;16.20;99.90;;;16.85;79.24;101822.75;5115249;28;20138;-80
2021/09/13 02:19:50;;;;;;;7.40;5.30;;;16.40;99.90;;;16.92;78.73;101817.31;5096835;28;20503;-79
2021/09/13 02:22:18;;;;;;;7.82;6.32;;;16.50;99.90;;;16.90;78.55;101811.09;5115213;28;20096;-79
2021/09/13 02:24:47;;;;;;;8.02;6.25;;;16.50;99.90;;;16.97;78.08;101820.81;5096914;28;20120;-78
2021/09/13 02:27:15;;;;;;;12.05;6.88;;;16.60;99.90;;;17.11;77.50;101813.44;5096887;28;20511;-81
2021/09/13 02:29:45;;;;;;;11.07;6.20;;;16.70;99.90;;;17.15;77.37;101812.47;5096876;28;20052;-81
2021/09/13 02:32:15;;;;;;;8.27;6.35;;;16.70;99.90;;;17.24;77.34;101810.56;5097010;28;20140;-80
2021/09/13 02:34:44;;;;;;;6.97;6.18;;;16.80;99.90;;;17.32;77.08;101811.31;5114670;28;20493;-81
2021/09/13 02:37:12;;;;;;;10.30;5.65;;;16.80;99.90;;;17.32;76.84;101814.00;5114983;28;20086;-79
2021/09/13 02:39:41;;;;;;;8.55;5.65;;;16.90;99.90;;;17.27;76.90;101807.81;5096827;28;20043;-79
2021/09/13 02:42:09;;;;;;;9.27;5.78;;;16.80;99.90;;;17.33;76.68;101810.41;5096638;28;20032;-78
2021/09/13 02:44:38;;;;;;;10.07;5.57;;;16.90;99.90;;;17.32;77.15;101798.84;5096166;28;20047;-80
2021/09/13 02:47:08;;;;;;;6.05;5.00;;;16.90;99.90;;;17.35;77.54;101789.84;5096596;28;20520;-80
2021/09/13 02:49:36;;;;;;;7.67;5.73;;;17.00;99.90;;;17.60;77.39;101815.28;5096247;28;20047;-81
2021/09/13 02:52:05;;;;;;;7.80;5.35;;;17.10;99.90;;;17.48;77.73;101813.72;5096400;28;20643;-79
2021/09/13 02:54:33;;;;;;;7.00;5.18;;;17.00;99.90;;;17.51;77.73;101811.00;5114283;28;20562;-79
2021/09/13 02:57:02;;;;;;;7.43;6.32;;;17.00;99.90;;;17.55;77.52;101825.22;5096523;28;20126;-79
2021/09/13 02:59:31;;;;;;;6.50;5.90;;;17.10;99.90;;;17.28;77.41;101780.19;5095302;28;20489;-79
2021/09/13 03:02:00;;;;;;;7.30;4.93;;;17.00;99.90;;;17.45;77.69;101815.53;5096272;28;20063;-79
2021/09/13 03:04:31;;;;;;;6.10;4.93;;;17.10;99.90;;;17.53;77.81;101824.34;5096244;28;20066;-78
2021/09/13 03:06:59;;;;;;;6.20;4.07;;;17.10;99.90;;;17.48;77.48;101820.84;5114194;28;20048;-81
2021/09/13 03:09:28;;;;;;;6.18;4.28;;;17.00;99.90;;;17.52;77.35;101817.22;5096067;28;20044;-81
2021/09/13 03:11:56;;;;;;;4.90;4.50;;;17.10;99.90;;;17.14;77.25;101749.22;5114606;28;20043;-79
2021/09/13 03:14:26;;;;;;;6.73;5.10;;;17.10;99.90;;;17.61;76.47;101820.66;5096055;28;20544;-79
2021/09/13 03:16:55;;;;;;;8.57;5.70;;;17.20;99.90;;;17.65;76.28;101808.09;5095984;28;20293;-80
2021/09/13 03:19:23;;;;;;;7.30;4.97;;;17.20;99.90;;;17.57;76.58;101816.25;5114398;28;20123;-80
2021/09/13 03:21:54;;;;;;;5.00;4.35;;;17.10;99.90;;;17.66;77.29;101812.50;5096073;28;20501;-80
2021/09/13 03:24:22;;;;;;;4.72;4.32;;;17.20;99.90;;;17.72;77.02;101807.94;5114455;28;20043;-79
2021/09/13 03:26:51;;;;;;;5.18;4.68;;;17.20;99.90;;;17.74;76.83;101807.91;5095805;28;20043;-82
2021/09/13 03:29:20;;;;;;;10.25;6.20;;;17.30;99.90;;;17.73;76.50;101804.34;5096031;28;20055;-79
2021/09/13 03:31:48;;;;;;;7.38;6.07;;;17.30;99.90;;;17.70;76.00;101803.53;5095738;28;20040;-79
2021/09/13 03:34:16;;;;;;;9.48;5.55;;;17.30;99.90;;;17.62;76.76;101781.38;5095784;28;20040;-80
2021/09/13 03:36:45;;;;;;;9.70;5.47;;;17.30;99.90;;;17.83;76.89;101808.63;5095739;28;20481;-79
2021/09/13 03:39:14;;;;;;;5.60;5.10;;;17.40;99.90;;;17.97;76.52;101805.66;5095586;28;20039;-79
2021/09/13 03:41:43;;;;;;;5.83;5.30;;;17.50;99.90;;;17.89;76.48;101799.56;5113842;28;20070;-79
2021/09/13 03:44:12;;;;;;;6.35;5.75;;;17.50;99.90;;;17.77;77.01;101797.13;5095468;28;20058;-80
2021/09/13 03:46:40;;;;;;;9.10;5.50;;;17.40;99.90;;;17.51;77.71;101804.78;5095555;28;20562;-79
2021/09/13 03:49:23;;;;;;;7.63;6.20;;;17.10;99.90;;;17.30;78.30;101802.44;5095898;28;20542;-80
2021/09/13 03:51:52;;;;;;;8.60;6.53;;;16.80;99.90;;;17.47;78.43;101813.72;5095595;28;20471;-80
2021/09/13 03:54:22;;;;;;;9.07;5.80;;;16.90;99.90;;;17.48;78.08;101807.47;5095717;28;20536;-79
2021/09/13 03:56:51;;;;;;;6.85;6.22;;;17.00;99.90;;;17.47;77.92;101793.22;5095448;28;20416;-79
2021/09/13 03:59:21;;;;;;;8.93;6.15;;;17.00;99.90;;;17.54;77.90;101802.03;5095450;28;20043;-79
2021/09/13 04:01:50;;;;;;;7.43;5.80;;;17.00;99.90;;;17.58;77.81;101798.38;5095383;28;20134;-80
2021/09/13 04:04:22;;;;;;;6.18;5.35;;;17.10;99.90;;;17.61;77.42;101798.34;5095209;28;20097;-80
2021/09/13 04:06:53;;;;;;;7.28;5.97;;;17.10;99.90;;;17.10;77.28;101726.13;5095634;28;20101;-78
2021/09/13 04:09:55;;;;;;;9.40;6.03;;;17.10;99.90;;;17.58;77.47;101803.75;5113449;28;20036;-76
2021/09/13 04:12:47;;;;;;;7.00;5.65;;;17.10;99.90;;;17.59;77.58;101808.19;5099446;28;20370;-81
2021/09/13 04:15:42;;;;;;;9.70;5.90;;;17.10;99.90;;;17.47;77.77;101803.91;5099290;28;20047;-82
2021/09/13 04:18:30;;;;;;;7.97;6.82;;;17.00;99.90;;;17.30;79.32;101800.66;5117741;28;20451;-81
2021/09/13 04:21:21;;;;;;;9.07;6.18;;;16.80;99.90;;;17.41;79.54;101805.81;5098945;28;20058;-81
2021/09/13 04:24:01;;;;;;;8.33;6.00;;;16.90;99.90;;;17.57;79.32;101804.66;5099426;28;20047;-80
2021/09/13 04:26:47;;;;;;;8.32;5.97;;;17.00;99.90;;;17.64;78.96;101803.63;5099027;28;20301;-77
2021/09/13 04:29:33;;;;;;;7.38;6.30;;;17.10;99.90;;;17.71;78.76;101797.28;5099251;28;20043;-74
2021/09/13 04:32:28;;;;;;;8.35;6.10;;;17.30;99.90;;;17.80;78.18;101797.09;5099201;28;20044;-74
2021/09/13 04:35:19;;;;;;;10.07;6.35;;;17.30;99.90;;;17.93;78.14;101806.63;5060290;28;20130;-76
2021/09/13 04:38:09;;;;;;;8.23;6.75;;;17.50;99.90;;;18.16;77.68;101812.41;5099043;28;20565;-75
2021/09/13 04:40:58;;;;;;;7.07;5.82;;;17.70;99.90;;;18.06;77.74;101809.97;5099136;28;20093;-75
2021/09/13 04:44:00;;;;;;;;;;;17.70;99.90;;;18.00;77.83;101810.97;5082974;28;20056;-75
2021/09/13 04:46:53;;;;;;;8.63;6.93;;;17.70;99.90;;;18.12;77.85;101812.53;5098936;28;19927;-75
2021/09/13 04:49:38;;;;;;;8.82;6.90;;;17.70;99.90;;;18.16;77.65;101812.41;5098858;28;20055;-75
2021/09/13 04:52:29;;;;;;;13.23;7.15;;;17.70;99.90;;;18.08;77.57;101810.81;5087594;28;20043;-74
2021/09/13 04:54:57;;;;;;;8.30;6.68;;;17.70;99.90;;;18.28;77.53;101816.63;5116807;28;20489;-75
2021/09/13 04:57:26;;;;;;;8.43;6.30;;;17.80;99.90;;;18.18;77.57;101813.28;5116635;28;20517;-74
2021/09/13 04:59:56;;;;;;;12.02;6.35;;;17.80;99.90;;;18.06;77.41;101818.00;5098200;28;20040;-74
2021/09/13 05:02:24;;;;;;;8.17;6.90;;;17.60;99.90;;;18.02;77.38;101804.66;5098555;28;20048;-76
2021/09/13 05:04:55;;;;;;;9.38;6.60;;;17.70;99.90;;;18.15;77.22;101813.34;5098449;28;20289;-76
2021/09/13 05:07:23;;;;;;;8.57;6.85;;;17.70;99.90;;;18.16;77.44;101812.41;5098178;28;20126;-75
2021/09/13 05:09:51;;;;;;;13.63;7.35;;;17.70;99.90;;;18.19;77.13;101816.84;5098656;28;20463;-75
2021/09/13 05:12:20;;;;;;;10.00;6.75;;;17.70;99.90;;;18.08;77.07;101790.25;5116346;28;20039;-75
2021/09/13 05:14:48;;;;;;;9.40;7.18;;;17.80;99.90;;;18.23;77.25;101814.06;5098144;28;20103;-74
2021/09/13 05:17:18;;;;;;;10.93;7.20;;;17.80;99.90;;;18.26;77.26;101822.03;5097904;28;20048;-74
2021/09/13 05:19:46;;;;;;;9.70;7.45;;;17.80;99.90;;;18.29;77.27;101813.91;5098137;28;20100;-74
2021/09/13 05:22:17;;;;;;;10.60;7.47;;;17.80;99.90;;;18.36;77.17;101818.25;5097344;28;20517;-75
2021/09/13 05:24:46;;;;;;;9.90;7.18;;;17.90;99.90;;;18.42;76.94;101830.63;5098293;28;20097;-75
2021/09/13 05:27:14;;;;;;;13.80;7.07;;;18.00;99.90;;;18.45;76.54;101838.63;5098060;28;20047;-75
2021/09/13 05:29:44;;;;;;;11.70;7.55;;;18.00;99.90;;;18.48;76.16;101834.13;5097978;28;20078;-74
2021/09/13 05:32:12;;;;;;;8.48;7.25;;;18.00;99.90;;;18.39;76.39;101828.03;5098150;28;20434;-75
2021/09/13 05:34:42;;;;;;;8.25;6.75;;;18.00;99.90;;;18.18;77.20;101818.63;5097887;28;20043;-74
2021/09/13 05:37:12;;;;;;;12.50;7.65;;;17.80;99.90;;;17.77;78.59;101819.44;5097865;28;20044;-74
2021/09/13 05:39:40;;;;;;;12.20;8.75;;;17.40;99.90;;;17.66;79.40;101805.38;5097601;28;20035;-74
2021/09/13 05:42:17;;;;;;;16.33;8.88;;;17.30;99.90;;;17.75;79.43;101821.25;5097871;28;20047;-75
2021/09/13 05:44:47;;;;;;;13.13;8.20;;;17.20;99.90;;;17.72;80.29;101829.34;5097342;28;20058;-75
2021/09/13 05:47:16;;;;;;;14.50;8.32;;;17.20;99.90;;;17.88;80.20;101832.63;5097648;28;20503;-75
2021/09/13 05:49:47;;;;;;;18.90;8.90;;;17.30;99.90;;;17.70;80.33;101833.84;5097423;28;20139;-74
2021/09/13 05:52:21;;;;;;;12.05;7.40;;;17.20;99.90;;;17.24;82.00;101830.16;5097578;28;20047;-75
2021/09/13 05:54:49;;;;;;;11.73;9.10;;;16.80;99.90;;;17.18;83.74;101827.59;5097151;28;20097;-75
2021/09/13 05:57:19;;;;;;;12.05;8.10;;;16.70;99.90;;;17.03;84.56;101818.00;5097370;28;20429;-75
2021/09/13 05:59:49;;;;;;;12.80;8.18;;;16.60;99.90;;;17.03;85.23;101825.16;5097399;28;20047;-76
2021/09/13 06:02:20;;;;;;;9.95;7.97;;;16.60;99.90;;;17.14;85.94;101836.56;5097308;28;20040;-75
2021/09/13 06:05:29;;;;;;;13.77;7.65;;;16.60;99.90;;;17.26;85.71;101831.03;5086801;28;20051;-75
2021/09/13 06:07:59;;;;;;;13.25;8.45;;;16.70;99.90;;;17.28;85.59;101831.88;5097002;28;20101;-77
2021/09/13 06:10:29;;;;;;;11.15;7.88;;;16.80;99.90;;;17.39;85.32;101831.69;5096744;28;20394;-76
2021/09/13 06:12:57;;;;;;;12.95;8.45;;;16.90;99.90;;;17.42;85.58;101829.84;5097318;28;20049;-75
2021/09/13 06:15:26;;;;;;;11.43;9.10;;;16.90;99.90;;;17.38;86.19;101838.81;5096965;28;20048;-75
2021/09/13 06:17:56;;;;;;;15.75;9.55;;;16.90;99.90;;;17.60;85.75;101828.69;5097057;28;20052;-76
2021/09/13 06:20:26;;;;;;;10.75;8.98;;;17.10;99.90;;;17.37;86.23;101837.06;5115146;28;20040;-75
2021/09/13 06:22:57;;;;;;;14.88;10.07;;;17.00;99.90;;;17.21;87.47;101838.22;5096666;28;20066;-76
2021/09/13 06:25:31;;;;;;;13.05;10.10;;;16.80;99.90;;;16.98;88.04;101832.34;5096896;28;20050;-76
2021/09/13 06:28:00;;;;;;;13.02;8.93;;;16.70;99.90;;;16.73;89.74;101834.50;5115044;28;20089;-76
2021/09/13 06:30:28;;;;;;;22.08;11.48;;;16.50;99.90;;;16.70;90.96;101839.91;5096740;28;20078;-75
2021/09/13 06:33:00;;;;;;;16.75;10.77;;;16.40;99.90;;;16.60;91.29;101840.06;5096853;28;20046;-75
2021/09/13 06:35:34;;;;;;;16.02;9.63;;;16.30;99.90;;;16.75;91.06;101843.41;5096430;28;20058;-75
2021/09/13 06:38:07;;;;;;;20.00;10.60;;;16.30;99.90;;;17.10;89.81;101841.09;5096548;28;20507;-76
2021/09/13 06:40:39;;;;;;;13.65;9.60;;;16.50;99.90;;;17.33;88.34;101843.38;5097432;28;20134;-76
2021/09/13 06:43:09;;;;;;;11.23;7.03;;;16.80;99.90;;;17.22;87.06;101845.34;5096773;28;20051;-76
2021/09/13 06:45:42;;;;;;;;;;;16.90;99.90;;;17.28;85.13;101847.94;5092962;28;20052;-75
2021/09/13 06:48:14;;;;;;;11.68;6.88;;;16.90;99.90;;;17.67;84.73;101849.09;5093019;28;19920;-75
2021/09/13 06:50:44;;;;;;;11.63;7.55;;;17.20;99.90;;;18.00;84.21;101849.31;5094170;28;20097;-76
2021/09/13 06:53:14;;;;;;;10.63;8.00;;;17.50;99.90;;;18.26;83.93;101842.56;5094042;28;20039;-75
2021/09/13 06:55:43;;;;;;;10.80;7.45;;;17.90;99.90;;;18.30;82.82;101847.84;5094186;28;20039;-76
2021/09/13 06:58:11;;;;;;;12.57;7.70;;;18.00;99.90;;;18.48;82.25;101858.22;5094379;28;20048;-75
2021/09/13 07:00:40;;;;;;;12.15;8.35;;;18.20;99.90;;;18.12;84.02;101856.25;5093915;28;20044;-76
2021/09/13 07:03:08;;;;;;;14.95;9.77;;;17.90;99.90;;;17.79;86.20;101851.53;5094064;28;20047;-74
2021/09/13 07:05:38;;;;;;;15.85;10.13;;;17.60;99.90;;;17.84;86.10;101865.72;5093930;28;20052;-77
2021/09/13 07:08:06;;;;;;;15.65;9.75;;;17.50;99.90;;;18.29;85.72;101862.13;5093957;28;20070;-75
2021/09/13 07:10:36;;;;;;;14.82;9.85;;;17.80;99.90;;;18.61;84.97;101873.13;5093830;28;20101;-76
2021/09/13 07:13:06;;;;;;;12.98;9.23;;;18.10;99.90;;;18.84;83.85;101873.50;5093976;28;20048;-75
2021/09/13 07:15:36;;;;;;;10.25;8.55;;;18.40;99.90;;;18.99;82.81;101874.94;5093411;28;20048;-77
2021/09/13 07:18:05;;;;;;;12.48;8.32;;;18.60;99.90;;;19.11;81.27;101884.50;5093836;28;20094;-78
2021/09/13 07:20:34;;;;;;;13.30;8.65;;;18.70;99.90;;;19.18;80.44;101884.31;5093735;28;20048;-75
2021/09/13 07:23:02;;;;;;;9.85;7.50;;;18.80;99.90;;;19.39;79.41;101882.97;5093471;28;20032;-75
2021/09/13 07:25:31;;;;;;;9.80;7.60;;;19.00;99.90;;;19.46;78.55;101889.94;5093723;28;20051;-76
2021/09/13 07:28:00;;;;;;;13.70;8.55;;;19.10;99.90;;;19.52;78.44;101884.44;5093798;28;20040;-76
2021/09/13 07:30:29;;;;;;;13.23;8.40;;;19.20;99.90;;;19.59;78.24;101896.78;5093824;28;20097;-75
2021/09/13 07:32:58;;;;;;;11.85;8.02;;;19.30;99.90;;;19.68;77.42;101896.56;5093416;28;20343;-74
2021/09/13 07:35:26;;;;;;;11.73;7.10;;;19.30;99.90;;;19.75;76.55;101898.16;5093915;28;20047;-75
2021/09/13 07:37:55;;;;;;;10.00;7.40;;;19.40;99.90;;;19.82;76.11;101899.78;5093875;28;20127;-75
2021/09/13 07:40:23;;;;;;;16.88;8.73;;;19.40;99.90;;;19.93;75.91;101900.38;5093625;28;20109;-75
2021/09/13 07:42:52;;;;;;;13.82;8.75;;;19.50;99.90;;;19.99;75.52;101892.16;5093396;28;20070;-76
2021/09/13 07:45:22;;;;;;;13.55;7.78;;;19.60;99.90;;;20.15;75.30;101895.31;5097718;28;20055;-78
2021/09/13 07:47:51;;;;;;;10.82;7.60;;;19.80;99.90;;;19.63;74.68;101810.75;5113722;28;20067;-81
2021/09/13 07:50:20;;;;;;;11.52;7.65;;;19.70;99.90;;;20.08;74.07;101894.59;5113486;28;20044;-76
2021/09/13 07:52:49;;;;;;;12.13;6.88;;;19.70;99.90;;;20.07;73.60;101892.84;5113385;28;20047;-77
2021/09/13 07:55:18;;;;;;;11.77;7.15;;;19.70;99.90;;;20.03;73.58;101893.84;5113715;28;20459;-78
2021/09/13 07:57:46;;;;;;;12.82;6.80;;;19.60;99.90;;;20.15;73.75;101898.00;5113206;28;20191;-75
2021/09/13 08:00:22;;;;;;;10.93;6.18;;;19.70;99.90;;;20.30;73.51;101892.22;5113296;28;20484;-74
2021/09/13 08:02:51;;;;;;;10.68;6.85;;;19.90;99.90;;;20.28;73.41;101905.72;5113427;28;20043;-75
2021/09/13 08:05:20;;;;;;;14.18;7.90;;;19.90;99.90;;;20.35;73.23;101895.66;5113671;28;20044;-76
2021/09/13 08:07:48;;;;;;;12.55;7.70;;;19.90;99.90;;;20.41;74.02;101895.50;5113598;28;20393;-75
2021/09/13 08:10:17;;;;;;;14.75;8.00;;;20.00;99.90;;;19.88;74.91;101902.28;5113338;28;20035;-75
2021/09/13 08:12:45;;;;;;;10.88;7.30;;;19.60;99.90;;;20.06;74.61;101919.72;5113556;28;20058;-77
2021/09/13 08:15:16;;;;;;;15.02;8.50;;;19.70;99.90;;;20.29;74.18;101901.19;5113766;28;20097;-73
2021/09/13 08:17:47;;;;;;;9.98;7.50;;;19.80;99.90;;;20.31;73.74;101908.31;5113566;28;20134;-73
2021/09/13 08:20:17;;;;;;;12.45;8.15;;;19.90;99.90;;;20.16;73.91;101897.06;5113166;28;20075;-72
2021/09/13 08:22:47;;;;;;;11.45;7.93;;;19.80;99.90;;;20.09;74.85;101912.47;5113391;28;20416;-73
2021/09/13 08:25:17;;;;;;;16.08;8.90;;;19.70;99.90;;;20.33;73.62;101902.88;5113441;28;20048;-73
2021/09/13 08:28:18;;;;;;;11.48;7.07;;;19.90;99.90;;;19.90;74.40;101905.81;5095158;28;20051;-74
2021/09/13 08:30:46;;;;;;;10.60;6.13;;;19.60;99.90;;;19.51;75.33;101910.38;5113022;28;20546;-76
2021/09/13 08:33:16;;;;;;;11.38;6.53;;;19.30;99.90;;;19.86;74.93;101906.81;5112642;28;20046;-78
2021/09/13 08:35:45;;;;;;;13.60;6.60;;;19.40;99.90;;;20.19;74.50;101919.38;5095462;28;20047;-73
2021/09/13 08:38:13;;;;;;;9.52;6.13;;;19.70;99.90;;;20.27;72.86;101919.16;5113314;28;20393;-70
2021/09/13 08:40:42;;;;;;;8.73;5.25;;;19.80;99.90;;;20.21;72.97;101925.59;5113064;28;20130;-71
2021/09/13 08:43:11;;;;;;;7.88;4.88;;;19.80;99.90;;;19.29;72.58;101782.13;5113105;28;20127;-72
2021/09/13 08:45:43;;;;;;;9.52;5.13;;;19.80;99.90;;;20.19;72.76;101931.97;5113063;28;20060;-73
2021/09/13 08:48:13;;;;;;;8.70;5.10;;;19.80;99.90;;;20.21;72.13;101927.44;5113084;28;20047;-72
2021/09/13 08:51:04;;;;;;;7.15;4.82;;;19.70;99.90;;;20.32;71.13;101928.91;5112900;28;20044;-71
2021/09/13 08:53:35;;;;;;;;;;;19.90;99.90;;;20.05;71.93;101913.50;5113232;28;20047;-71
2021/09/13 08:56:07;;;;;;;11.75;5.57;;;19.90;99.90;;;20.21;71.94;101930.97;5113118;28;19978;-70
2021/09/13 08:58:36;;;;;;;7.75;5.40;;;19.80;99.90;;;20.39;70.85;101929.59;5115240;28;20039;-70
2021/09/13 09:01:05;;;;;;;6.75;4.97;;;20.00;99.90;;;20.30;71.63;101935.22;5116835;28;20151;-69
2021/09/13 09:03:37;;;;;;;8.27;4.28;;;19.90;99.90;;;20.34;69.94;101931.53;5116391;28;20039;-70
2021/09/13 09:06:07;;;;;;;7.95;4.07;;;19.90;99.90;;;20.13;70.35;101932.09;5116451;28;20043;-71
2021/09/13 09:08:37;;;;;;;6.53;4.30;;;19.80;99.90;;;19.85;71.00;101939.09;5116763;28;20050;-72
2021/09/13 09:11:10;;;;;;;4.63;4.10;;;19.50;99.90;;;19.73;71.77;101935.81;5116648;28;20067;-71
2021/09/13 09:13:41;;;;;;;8.85;4.28;;;19.40;99.90;;;19.65;71.45;101935.09;5116229;28;20465;-71
2021/09/13 09:16:11;;;;;;;7.93;3.95;;;19.40;99.90;;;19.76;70.71;101938.38;5116744;28;20050;-69
2021/09/13 09:18:43;;;;;;;7.60;4.07;;;19.40;99.90;;;20.04;71.65;101943.94;5116722;28;20126;-74
2021/09/13 09:21:27;;;;;;;7.47;5.22;;;19.60;99.90;;;20.04;71.73;101937.69;5098112;28;20047;-72
2021/09/13 09:23:57;;;;;;;9.82;5.38;;;19.60;99.90;;;20.03;71.99;101944.88;5116348;28;20047;-70
2021/09/13 09:26:26;;;;;;;9.45;5.13;;;19.60;99.90;;;20.17;70.06;101937.31;5116018;28;20035;-71
2021/09/13 09:28:56;;;;;;;8.88;4.85;;;19.80;99.90;;;20.15;70.31;101938.31;5116134;28;20455;-70
2021/09/13 09:31:41;;;;;;;7.57;4.28;;;19.90;99.90;;;20.11;68.89;101909.75;5115929;28;20438;-71
2021/09/13 09:34:14;;;;;;;7.15;4.60;;;20.00;99.90;;;19.64;67.90;101851.91;5114686;28;20052;-70
2021/09/13 09:37:03;;;;;;;8.07;5.00;;;19.80;99.90;;;20.35;68.39;101944.03;5115887;28;20485;-71
2021/09/13 09:39:34;;;;;;;9.30;5.00;;;19.80;99.90;;;20.33;68.63;101935.13;5116349;28;20067;-72
2021/09/13 09:42:04;;;;;;;8.43;4.93;;;19.90;99.90;;;20.55;68.80;101930.94;5115488;28;20058;-70
2021/09/13 09:44:33;;;;;;;6.30;4.85;;;20.10;99.90;;;20.24;68.45;101930.91;5115605;28;20126;-67
2021/09/13 09:47:06;;;;;;;8.60;4.25;;;19.90;99.90;;;20.41;68.22;101931.31;5096641;28;20132;-67
2021/09/13 09:49:47;;;;;;;8.55;4.15;;;20.10;99.90;;;20.33;68.22;101927.97;5115086;28;20040;-66
2021/09/13 09:52:37;;;;;;;6.00;4.15;;;20.00;99.90;;;20.87;68.29;101930.88;5115117;28;20047;-67
2021/09/13 09:55:17;;;;;;;7.40;4.55;;;20.40;99.90;;;21.03;67.18;101934.00;5115134;28;20116;-66
2021/09/13 09:58:03;;;;;;;5.93;4.03;;;20.60;99.90;;;21.39;67.90;101932.84;5115481;28;20051;-65
2021/09/13 10:00:32;;;;;;;6.60;4.35;;;21.00;99.90;;;21.33;64.12;101922.31;5115805;28;20047;-67
2021/09/13 10:03:01;;;;;;;6.88;4.18;;;21.20;99.90;;;20.84;65.07;101904.06;5115360;28;20046;-66
2021/09/13 10:05:31;;;;;;;9.00;3.38;;;20.80;99.90;;;20.94;66.64;101908.25;5115078;28;20043;-66
2021/09/13 10:08:01;;;;;;;6.75;4.57;;;20.70;99.90;;;21.03;65.81;101904.41;5114876;28;20134;-68
2021/09/13 10:10:32;;;;;;;4.87;3.03;;;20.80;99.90;;;21.48;65.33;101922.69;5114731;28;20097;-67
2021/09/13 10:13:01;;;;;;;;;;;21.10;99.90;;;21.00;63.91;101818.41;5115071;28;20048;-67
2021/09/13 10:15:30;;;;;;;4.70;3.17;;;21.20;99.90;;;21.77;63.80;101920.84;5114939;28;19954;-68
2021/09/13 10:18:00;;;;;;;4.35;3.05;;;21.40;99.90;;;21.93;64.07;101920.28;5114828;28;20293;-68
2021/09/13 10:20:29;;;;;;;4.38;3.15;;;21.60;99.90;;;21.59;62.57;101916.94;5114509;28;20039;-66
2021/09/13 10:22:58;;;;;;;4.65;3.20;;;21.40;99.90;;;21.36;63.57;101916.81;5114326;28;20044;-68
2021/09/13 10:25:33;;;;;;;4.72;3.05;;;21.30;99.90;;;20.39;65.09;101921.53;5096184;28;20036;-68
2021/09/13 10:28:08;;;;;;;4.60;3.10;;;20.40;99.90;;;20.22;65.15;101908.56;5114431;28;20089;-67
2021/09/13 10:30:51;;;;;;;6.25;3.22;;;20.00;99.90;;;20.70;64.47;101911.66;5114546;28;20176;-67